Time;durP1;ratioP1;P1;durP2;ratioP2;P2;SDS_P1;SDS_P2;PMS_P1;PMS_P2;Temp;Humidity;BMP_temperature;BMP_pressure;BME280_temperature;BME280_humidity;BME280_pressure;Samples;Min_cycle;Max_cycle;Signal;HPM_P1;HPM_P2
2023/10/27 00:00:16;;;;;;;8.05;3.85;;;13.00;78.70;;;;;;4873625;29;20143;-90
2023/10/27 00:02:43;;;;;;;7.40;3.70;;;12.90;78.70;;;;;;4888744;29;20049;-90
2023/10/27 00:05:10;;;;;;;8.52;4.18;;;12.90;78.60;;;;;;4872735;29;20049;-90
2023/10/27 00:07:37;;;;;;;7.73;2.90;;;12.80;78.80;;;;;;4888604;29;20100;-90
2023/10/27 00:10:05;;;;;;;6.07;3.10;;;12.80;78.80;;;;;;4888473;29;20395;-90
2023/10/27 00:12:32;;;;;;;7.43;3.38;;;12.80;78.70;;;;;;4888785;29;20056;-90
2023/10/27 00:14:59;;;;;;;10.40;4.05;;;12.80;78.50;;;;;;4874929;29;20068;-89
2023/10/27 00:17:26;;;;;;;8.93;4.50;;;12.80;78.80;;;;;;4889807;29;20052;-90
2023/10/27 00:19:53;;;;;;;8.47;3.83;;;12.60;79.00;;;;;;4890450;29;20073;-89
2023/10/27 00:22:21;;;;;;;6.45;2.75;;;12.50;78.60;;;;;;4890269;29;20116;-90
2023/10/27 00:24:48;;;;;;;6.72;3.10;;;12.50;79.50;;;;;;4874305;29;20503;-90
2023/10/27 00:27:15;;;;;;;8.80;3.20;;;12.60;79.60;;;;;;4889732;29;20052;-90
2023/10/27 00:29:42;;;;;;;6.57;2.80;;;12.50;79.20;;;;;;4874543;29;20427;-90
2023/10/27 00:32:09;;;;;;;6.67;2.30;;;12.60;79.60;;;;;;4890718;29;20048;-90
2023/10/27 00:34:36;;;;;;;5.60;2.22;;;12.70;79.50;;;;;;4875477;29;20064;-90
2023/10/27 00:37:07;;;;;;;9.05;3.75;;;12.70;79.70;;;;;;4890242;29;20495;-90
2023/10/27 00:39:34;;;;;;;6.28;2.83;;;12.70;79.40;;;;;;4890255;29;20044;-90
2023/10/27 00:42:01;;;;;;;7.05;2.10;;;12.70;79.30;;;;;;4889539;29;20049;-90
2023/10/27 00:44:28;;;;;;;5.40;2.23;;;12.70;79.10;;;;;;4887885;29;20140;-90
2023/10/27 00:46:56;;;;;;;5.80;2.33;;;12.70;78.80;;;;;;4887091;29;20083;-90
2023/10/27 00:49:24;;;;;;;5.38;2.28;;;12.70;78.70;;;;;;4871469;29;20051;-90
2023/10/27 00:51:53;;;;;;;6.40;2.03;;;12.60;79.20;;;;;;4887452;29;20052;-90
2023/10/27 00:54:21;;;;;;;8.65;2.38;;;12.60;79.40;;;;;;4888860;29;20056;-90
2023/10/27 00:56:49;;;;;;;8.63;2.80;;;12.50;79.50;;;;;;4888712;29;20053;-90
2023/10/27 00:59:17;;;;;;;7.10;2.60;;;12.40;80.20;;;;;;4886208;29;20096;-89
2023/10/27 01:01:44;;;;;;;5.97;2.45;;;12.30;80.50;;;;;;4885713;29;20048;-89
2023/10/27 01:04:11;;;;;;;5.78;2.30;;;12.30;80.70;;;;;;4886316;29;20044;-89
2023/10/27 01:06:41;;;;;;;6.13;2.67;;;12.40;80.60;;;;;;4870786;29;20077;-89
2023/10/27 01:09:09;;;;;;;7.87;2.33;;;12.40;80.40;;;;;;4885836;29;20147;-89
2023/10/27 01:11:39;;;;;;;6.53;2.17;;;12.40;80.30;;;;;;4885784;29;20052;-89
2023/10/27 01:14:08;;;;;;;5.18;2.10;;;12.40;79.90;;;;;;4871019;29;20067;-89
2023/10/27 01:16:35;;;;;;;6.90;2.60;;;12.40;79.70;;;;;;4885844;29;20136;-89
2023/10/27 01:19:04;;;;;;;6.90;2.53;;;12.40;79.40;;;;;;4885464;29;20041;-89
2023/10/27 01:21:31;;;;;;;8.53;2.90;;;12.50;79.20;;;;;;4885372;29;20132;-90
2023/10/27 01:23:58;;;;;;;7.43;2.20;;;12.50;78.90;;;;;;4885964;29;20044;-89
2023/10/27 01:26:25;;;;;;;5.63;2.30;;;12.50;78.70;;;;;;4887878;29;20048;-89
2023/10/27 01:28:52;;;;;;;6.38;2.42;;;12.50;78.60;;;;;;4887244;29;20048;-90
2023/10/27 01:31:20;;;;;;;7.22;2.30;;;12.40;78.90;;;;;;4887055;29;20049;-89
2023/10/27 01:33:48;;;;;;;6.70;2.80;;;12.40;78.80;;;;;;4886291;29;20597;-90
2023/10/27 01:36:15;;;;;;;5.75;2.35;;;12.30;78.60;;;;;;4886187;29;20044;-90
2023/10/27 01:38:42;;;;;;;5.95;2.60;;;12.30;78.90;;;;;;4871908;29;20053;-90
2023/10/27 01:41:09;;;;;;;5.82;2.40;;;12.30;78.70;;;;;;4888338;29;20112;-90
2023/10/27 01:43:37;;;;;;;5.38;2.33;;;12.30;78.90;;;;;;4872932;29;20045;-90
2023/10/27 01:46:04;;;;;;;7.97;2.23;;;12.30;79.30;;;;;;4887340;29;20048;-90
2023/10/27 01:48:31;;;;;;;6.10;2.53;;;12.20;79.80;;;;;;4888070;29;20064;-90
2023/10/27 01:50:58;;;;;;;10.30;2.83;;;12.20;79.70;;;;;;4886576;29;20056;-90
2023/10/27 01:53:26;;;;;;;7.53;3.17;;;12.00;80.60;;;;;;4872533;29;20054;-90
2023/10/27 01:55:53;;;;;;;7.22;3.38;;;12.00;81.10;;;;;;4888634;29;20084;-89
2023/10/27 01:58:20;;;;;;;7.20;3.20;;;12.00;81.70;;;;;;4888009;29;20613;-89
2023/10/27 02:00:47;;;;;;;7.30;3.15;;;12.00;81.70;;;;;;4888088;29;20053;-90
2023/10/27 02:03:15;;;;;;;7.45;3.47;;;12.10;81.80;;;;;;4887279;29;20052;-90
2023/10/27 02:05:43;;;;;;;8.70;4.18;;;12.10;81.60;;;;;;4888340;29;20499;-90
2023/10/27 02:08:11;;;;;;;8.95;4.40;;;12.20;81.60;;;;;;4872990;29;20067;-91
2023/10/27 02:10:38;;;;;;;7.53;3.43;;;12.20;81.50;;;;;;4888493;29;21491;-90
2023/10/27 02:13:05;;;;;;;11.50;4.30;;;12.20;81.30;;;;;;4888276;29;20049;-90
2023/10/27 02:15:33;;;;;;;9.43;4.40;;;12.30;81.30;;;;;;4871585;29;20570;-91
2023/10/27 02:18:00;;;;;;;10.15;4.35;;;12.30;81.10;;;;;;4887644;29;20112;-90
2023/10/27 02:20:29;;;;;;;8.88;4.35;;;12.30;81.00;;;;;;4887999;29;20482;-90
2023/10/27 02:22:57;;;;;;;11.57;4.80;;;12.40;80.90;;;;;;4888076;29;20044;-90
2023/10/27 02:25:24;;;;;;;9.88;4.55;;;12.40;80.60;;;;;;4887876;29;20044;-91
2023/10/27 02:27:51;;;;;;;12.88;5.20;;;12.50;80.50;;;;;;4888350;29;20052;-91
2023/10/27 02:30:19;;;;;;;10.32;4.30;;;12.40;80.70;;;;;;4888011;29;20077;-90
2023/10/27 02:32:46;;;;;;;9.77;4.50;;;12.50;80.70;;;;;;4888513;29;20059;-91
2023/10/27 02:35:13;;;;;;;9.70;4.40;;;12.50;80.30;;;;;;4888177;29;20060;-90
2023/10/27 02:37:41;;;;;;;9.55;3.97;;;12.50;80.10;;;;;;4886904;29;20052;-90
2023/10/27 02:40:08;;;;;;;9.48;3.63;;;12.50;80.20;;;;;;4871413;29;20048;-91
2023/10/27 02:42:38;;;;;;;9.57;3.70;;;12.40;80.40;;;;;;4888659;29;20048;-92
2023/10/27 02:45:07;;;;;;;9.63;3.90;;;12.40;80.30;;;;;;4887258;29;20048;-91
2023/10/27 02:47:34;;;;;;;8.87;4.23;;;12.30;80.10;;;;;;4890223;29;20080;-90
2023/10/27 02:50:05;;;;;;;10.18;4.00;;;12.30;80.60;;;;;;4892387;29;20119;-91
2023/10/27 02:52:32;;;;;;;9.45;3.67;;;12.40;80.40;;;;;;4892902;29;20076;-91
2023/10/27 02:55:00;;;;;;;7.40;3.70;;;12.40;80.20;;;;;;4892959;29;20080;-91
2023/10/27 02:57:27;;;;;;;10.07;3.95;;;12.40;80.00;;;;;;4892975;29;20048;-91
2023/10/27 02:59:56;;;;;;;7.97;3.13;;;12.40;79.90;;;;;;4892485;29;20045;-91
2023/10/27 03:02:24;;;;;;;7.63;3.60;;;12.40;79.90;;;;;;4892151;29;20044;-91
2023/10/27 03:04:53;;;;;;;8.63;4.15;;;12.40;79.70;;;;;;4892354;29;20051;-91
2023/10/27 03:07:21;;;;;;;9.55;3.60;;;12.50;79.80;;;;;;4892055;29;20056;-91
2023/10/27 03:09:48;;;;;;;7.90;3.30;;;12.40;79.80;;;;;;4876762;29;20124;-91
2023/10/27 03:12:16;;;;;;;8.07;3.53;;;12.50;79.70;;;;;;4890845;29;20059;-92
2023/10/27 03:14:44;;;;;;;7.72;3.90;;;12.40;79.40;;;;;;4875546;29;20056;-91
2023/10/27 03:17:11;;;;;;;8.65;3.75;;;12.40;79.30;;;;;;4891569;29;20062;-91
2023/10/27 03:19:38;;;;;;;9.57;3.58;;;12.40;79.30;;;;;;4874875;29;20082;-92
2023/10/27 03:22:06;;;;;;;7.43;3.80;;;12.40;79.40;;;;;;4889700;29;20045;-92
2023/10/27 03:24:33;;;;;;;7.17;3.60;;;12.40;79.10;;;;;;4890206;29;20040;-91
2023/10/27 03:27:01;;;;;;;8.70;3.88;;;12.40;79.30;;;;;;4890918;29;20411;-90
2023/10/27 03:29:28;;;;;;;10.10;4.13;;;12.40;79.10;;;;;;4890549;29;20103;-91
2023/10/27 03:31:55;;;;;;;6.95;3.55;;;12.30;79.10;;;;;;4890044;29;20052;-91
2023/10/27 03:34:23;;;;;;;8.93;3.55;;;12.30;79.00;;;;;;4891564;29;20067;-90
2023/10/27 03:36:50;;;;;;;7.60;3.73;;;12.30;79.00;;;;;;4890354;29;20040;-91
2023/10/27 03:39:17;;;;;;;8.93;3.83;;;12.20;79.10;;;;;;4891918;29;20108;-92
2023/10/27 03:41:44;;;;;;;6.68;3.40;;;12.30;79.80;;;;;;4891545;29;20060;-92
2023/10/27 03:44:12;;;;;;;8.23;4.03;;;12.30;79.40;;;;;;4875336;29;20087;-92
2023/10/27 03:46:39;;;;;;;7.75;3.97;;;12.40;79.60;;;;;;4890593;29;20048;-92
2023/10/27 03:49:06;;;;;;;9.43;3.50;;;12.30;79.20;;;;;;4875523;29;20567;-92
2023/10/27 03:51:33;;;;;;;7.22;3.42;;;12.40;79.30;;;;;;4891422;29;20061;-92
2023/10/27 03:54:00;;;;;;;9.15;4.05;;;12.40;79.10;;;;;;4890307;29;20079;-91
2023/10/27 03:56:28;;;;;;;8.40;3.70;;;12.40;79.20;;;;;;4890566;29;20045;-92
2023/10/27 03:58:55;;;;;;;7.95;3.55;;;12.30;79.10;;;;;;4886389;29;20056;-89
2023/10/27 04:01:22;;;;;;;7.50;3.10;;;12.30;79.00;;;;;;4883224;29;20056;-90
2023/10/27 04:03:49;;;;;;;8.18;3.40;;;12.30;79.00;;;;;;4877130;29;20191;-89
2023/10/27 04:06:16;;;;;;;8.05;3.58;;;12.30;79.10;;;;;;4873681;29;20049;-90
2023/10/27 04:08:43;;;;;;;7.63;3.60;;;12.30;79.00;;;;;;4877203;29;20044;-90
2023/10/27 04:11:10;;;;;;;8.82;3.20;;;12.30;78.80;;;;;;4882216;29;20144;-84
2023/10/27 04:13:37;;;;;;;9.10;3.37;;;12.30;78.80;;;;;;4884162;29;20059;-84
2023/10/27 04:16:04;;;;;;;10.35;4.53;;;12.30;78.80;;;;;;4868398;29;20067;-84
2023/10/27 04:18:31;;;;;;;14.10;5.72;;;12.20;78.90;;;;;;4884091;29;20052;-84
2023/10/27 04:20:58;;;;;;;10.73;5.20;;;12.20;78.90;;;;;;4868521;29;20499;-84
2023/10/27 04:23:25;;;;;;;9.50;4.38;;;12.10;79.00;;;;;;4868533;29;20041;-85
2023/10/27 04:25:52;;;;;;;10.87;5.10;;;12.10;79.00;;;;;;4868767;29;20058;-86
2023/10/27 04:28:21;;;;;;;11.18;4.90;;;12.10;78.90;;;;;;4865275;29;20056;-86
2023/10/27 04:30:49;;;;;;;12.63;6.60;;;12.10;79.10;;;;;;4882290;29;20681;-85
2023/10/27 04:33:16;;;;;;;12.95;6.40;;;12.10;79.10;;;;;;4895233;29;20040;-86
2023/10/27 04:35:44;;;;;;;15.60;7.45;;;12.10;79.00;;;;;;4876170;29;20579;-86
2023/10/27 04:38:11;;;;;;;15.17;7.43;;;12.10;79.20;;;;;;4880615;29;20445;-85
2023/10/27 04:40:38;;;;;;;16.52;7.32;;;12.20;79.40;;;;;;4861549;29;20427;-85
2023/10/27 04:43:05;;;;;;;14.05;6.82;;;12.20;79.30;;;;;;4876189;29;20441;-85
2023/10/27 04:45:32;;;;;;;15.13;7.72;;;12.20;79.40;;;;;;4864846;29;20049;-85
2023/10/27 04:47:59;;;;;;;17.45;9.20;;;12.20;79.50;;;;;;4864957;29;20044;-85
2023/10/27 04:50:27;;;;;;;14.63;8.10;;;12.10;79.60;;;;;;4898946;29;20047;-84
2023/10/27 04:52:54;;;;;;;17.98;9.07;;;12.10;79.70;;;;;;4883211;29;20060;-85
2023/10/27 04:55:21;;;;;;;17.48;6.97;;;12.10;79.80;;;;;;4873916;29;20423;-86
2023/10/27 04:57:48;;;;;;;13.77;6.65;;;12.20;79.80;;;;;;4869205;29;20041;-86
2023/10/27 05:00:16;;;;;;;14.10;7.03;;;12.20;79.80;;;;;;4898901;29;20052;-85
2023/10/27 05:02:43;;;;;;;13.83;6.83;;;12.20;79.80;;;;;;4883432;29;20052;-87
2023/10/27 05:05:11;;;;;;;12.75;5.97;;;12.20;79.90;;;;;;4883528;29;20059;-87
2023/10/27 05:07:38;;;;;;;13.18;6.70;;;12.20;80.00;;;;;;4883483;29;20048;-87
2023/10/27 05:10:09;;;;;;;12.10;6.90;;;12.20;80.30;;;;;;4880804;29;20100;-87
2023/10/27 05:12:37;;;;;;;12.43;7.72;;;12.10;80.40;;;;;;4864671;29;20076;-87
2023/10/27 05:15:05;;;;;;;15.07;7.93;;;12.00;80.90;;;;;;4849080;29;20069;-87
2023/10/27 05:17:35;;;;;;;14.63;8.40;;;12.00;81.70;;;;;;4864478;29;20147;-87
2023/10/27 05:20:05;;;;;;;13.98;8.43;;;12.00;82.40;;;;;;4864592;29;20052;-86
2023/10/27 05:22:32;;;;;;;15.27;8.23;;;12.00;82.50;;;;;;4864490;29;20109;-87
2023/10/27 05:25:05;;;;;;;16.35;7.93;;;12.00;82.60;;;;;;4864298;29;20059;-86
2023/10/27 05:27:35;;;;;;;14.90;7.77;;;12.10;82.80;;;;;;4879657;29;20053;-87
2023/10/27 05:30:03;;;;;;;13.82;7.70;;;12.10;82.80;;;;;;4858899;29;20052;-87
2023/10/27 05:32:30;;;;;;;13.05;7.57;;;12.20;82.80;;;;;;4867868;29;20044;-87
2023/10/27 05:34:57;;;;;;;11.77;6.93;;;12.20;82.80;;;;;;4867828;29;20055;-86
2023/10/27 05:37:24;;;;;;;15.27;8.35;;;12.30;82.70;;;;;;4883214;29;20059;-87
2023/10/27 05:39:51;;;;;;;19.30;10.87;;;12.30;82.30;;;;;;4867507;29;20160;-88
2023/10/27 05:42:18;;;;;;;18.27;11.00;;;12.30;82.20;;;;;;4883254;29;20048;-87
2023/10/27 05:44:45;;;;;;;18.10;9.38;;;12.40;81.90;;;;;;4882984;29;20135;-87
2023/10/27 05:47:12;;;;;;;14.60;8.38;;;12.30;81.90;;;;;;4854361;29;20053;-87
2023/10/27 05:49:39;;;;;;;13.63;7.13;;;12.30;82.10;;;;;;4865213;29;20053;-87
2023/10/27 05:52:06;;;;;;;14.87;7.40;;;12.20;82.60;;;;;;4852605;29;20113;-87
2023/10/27 05:54:33;;;;;;;13.02;7.10;;;12.20;82.80;;;;;;4849080;29;20049;-87
2023/10/27 05:57:00;;;;;;;13.75;7.10;;;12.20;82.70;;;;;;4848749;29;20049;-87
2023/10/27 05:59:27;;;;;;;14.20;7.60;;;12.20;82.80;;;;;;4864321;29;20064;-87
2023/10/27 06:01:55;;;;;;;11.27;6.47;;;12.20;83.10;;;;;;4864176;29;20139;-87
2023/10/27 06:04:25;;;;;;;13.93;6.20;;;12.20;83.20;;;;;;4879021;29;20056;-87
2023/10/27 06:06:52;;;;;;;16.38;7.13;;;12.30;83.10;;;;;;4866940;29;20053;-87
2023/10/27 06:09:19;;;;;;;12.02;6.22;;;12.30;83.00;;;;;;4867262;29;20052;-88
2023/10/27 06:11:46;;;;;;;11.75;6.32;;;12.40;82.90;;;;;;4867147;29;20112;-86
2023/10/27 06:14:13;;;;;;;16.15;7.70;;;12.40;82.80;;;;;;4866992;29;20116;-87
2023/10/27 06:16:40;;;;;;;13.67;7.53;;;12.30;82.80;;;;;;4866980;29;20124;-87
2023/10/27 06:19:07;;;;;;;14.45;7.80;;;12.30;83.10;;;;;;4882048;29;20050;-87
2023/10/27 06:21:34;;;;;;;15.15;7.90;;;12.30;83.10;;;;;;4867745;29;20041;-87
2023/10/27 06:24:03;;;;;;;17.38;8.20;;;12.40;82.80;;;;;;4886884;29;20534;-87
2023/10/27 06:26:30;;;;;;;17.38;8.43;;;12.20;82.90;;;;;;4886766;29;20460;-87
2023/10/27 06:28:58;;;;;;;19.00;8.10;;;12.30;83.00;;;;;;4886653;29;20052;-86
2023/10/27 06:31:26;;;;;;;14.77;7.72;;;12.30;83.10;;;;;;4886480;29;20048;-86
2023/10/27 06:33:54;;;;;;;15.27;8.55;;;12.20;83.10;;;;;;4886153;29;20455;-87
2023/10/27 06:36:21;;;;;;;14.52;9.35;;;12.20;83.20;;;;;;4885916;29;20567;-86
2023/10/27 06:38:48;;;;;;;18.52;9.73;;;12.30;83.10;;;;;;4885625;29;20076;-87
2023/10/27 06:41:15;;;;;;;15.27;8.07;;;12.40;83.00;;;;;;4901343;29;20119;-86
2023/10/27 06:43:43;;;;;;;17.17;8.77;;;12.40;82.90;;;;;;4901159;29;20407;-87
2023/10/27 06:46:10;;;;;;;18.17;8.82;;;12.50;82.70;;;;;;4901349;29;20045;-86
2023/10/27 06:48:37;;;;;;;15.75;8.52;;;12.50;82.80;;;;;;4901260;29;20063;-87
2023/10/27 06:51:04;;;;;;;15.57;8.80;;;12.50;82.70;;;;;;4901696;29;20049;-86
2023/10/27 06:53:31;;;;;;;16.57;7.80;;;12.50;82.70;;;;;;4901261;29;20104;-87
2023/10/27 06:55:59;;;;;;;16.17;8.82;;;12.50;82.70;;;;;;4872245;29;20510;-87
2023/10/27 06:58:26;;;;;;;16.45;8.35;;;12.50;82.80;;;;;;4867188;29;20464;-87
2023/10/27 07:00:54;;;;;;;15.40;7.97;;;12.50;82.80;;;;;;4866752;29;20503;-87
2023/10/27 07:03:21;;;;;;;14.77;8.25;;;12.50;83.00;;;;;;4878760;29;20045;-87
2023/10/27 07:05:59;;;;;;;16.10;8.13;;;12.50;83.00;;;;;;4855028;29;20500;-88
2023/10/27 07:08:26;;;;;;;18.15;9.13;;;12.50;83.10;;;;;;4882081;29;20088;-88
2023/10/27 07:10:57;;;;;;;14.98;8.60;;;12.40;83.20;;;;;;4851577;29;20048;-87
2023/10/27 07:13:26;;;;;;;17.52;8.38;;;12.30;83.60;;;;;;4870164;29;20063;-85
2023/10/27 07:15:53;;;;;;;19.83;9.50;;;12.20;83.60;;;;;;4878217;29;20061;-86
2023/10/27 07:18:20;;;;;;;21.10;9.40;;;12.20;83.80;;;;;;4855948;29;20053;-86
2023/10/27 07:20:47;;;;;;;16.83;8.57;;;12.20;84.00;;;;;;4869303;29;20109;-86
2023/10/27 07:23:17;;;;;;;14.27;8.38;;;12.20;84.10;;;;;;4838879;29;20085;-87
2023/10/27 07:25:45;;;;;;;14.48;8.18;;;12.10;84.30;;;;;;4832189;29;20052;-87
2023/10/27 07:28:12;;;;;;;14.15;8.30;;;12.10;84.80;;;;;;4860174;29;20572;-87
2023/10/27 07:30:40;;;;;;;16.87;9.37;;;12.10;84.80;;;;;;4832391;29;20049;-86
2023/10/27 07:33:07;;;;;;;16.63;9.20;;;12.10;84.90;;;;;;4872790;29;20412;-86
2023/10/27 07:35:34;;;;;;;17.13;9.70;;;12.10;85.00;;;;;;4875452;29;20082;-87
2023/10/27 07:38:04;;;;;;;15.82;9.07;;;12.10;85.10;;;;;;4844742;29;20440;-87
2023/10/27 07:40:32;;;;;;;19.38;9.80;;;12.10;85.30;;;;;;4829638;29;20497;-87
2023/10/27 07:42:59;;;;;;;20.37;9.87;;;12.30;85.20;;;;;;4831615;29;20053;-87
2023/10/27 07:45:26;;;;;;;15.88;9.30;;;12.40;84.90;;;;;;4832535;29;20052;-86
2023/10/27 07:47:54;;;;;;;18.42;10.43;;;12.50;84.50;;;;;;4829445;29;20053;-86
2023/10/27 07:50:21;;;;;;;19.92;10.38;;;12.50;84.30;;;;;;4844612;29;20050;-87
2023/10/27 07:52:48;;;;;;;17.50;10.27;;;12.50;84.20;;;;;;4844502;29;20058;-87
2023/10/27 07:55:15;;;;;;;22.50;11.00;;;12.60;84.00;;;;;;4829428;29;20089;-86
2023/10/27 07:57:42;;;;;;;22.58;12.02;;;12.60;84.00;;;;;;4860454;29;20050;-86
2023/10/27 08:00:09;;;;;;;20.63;10.93;;;12.70;83.80;;;;;;4862781;29;20045;-87
2023/10/27 08:02:38;;;;;;;20.90;12.38;;;12.80;83.80;;;;;;4832142;29;20045;-87
2023/10/27 08:05:06;;;;;;;20.05;11.75;;;12.80;83.60;;;;;;4833137;29;20102;-87
2023/10/27 08:07:36;;;;;;;21.53;10.90;;;12.70;83.50;;;;;;4833175;29;20404;-86
2023/10/27 08:10:07;;;;;;;22.20;11.80;;;12.70;83.70;;;;;;4832869;29;20168;-87
2023/10/27 08:12:35;;;;;;;20.58;12.13;;;12.70;83.90;;;;;;4832282;29;20049;-87
2023/10/27 08:15:07;;;;;;;21.70;12.60;;;12.70;83.80;;;;;;4853424;29;20160;-87
2023/10/27 08:17:35;;;;;;;22.77;12.75;;;12.70;84.10;;;;;;4868739;29;20052;-87
2023/10/27 08:20:03;;;;;;;22.83;12.20;;;12.80;83.90;;;;;;4868742;29;20048;-87
2023/10/27 08:22:32;;;;;;;22.85;11.77;;;12.80;83.80;;;;;;4868614;29;20530;-87
2023/10/27 08:25:00;;;;;;;22.10;12.60;;;12.80;83.90;;;;;;4868861;29;20062;-87
2023/10/27 08:27:27;;;;;;;24.20;13.43;;;12.80;83.80;;;;;;4869077;29;20040;-87
2023/10/27 08:29:56;;;;;;;24.25;13.43;;;12.70;83.90;;;;;;4884591;29;20056;-87
2023/10/27 08:32:23;;;;;;;23.27;13.83;;;12.70;84.20;;;;;;4869191;29;20052;-87
2023/10/27 08:34:50;;;;;;;24.70;14.52;;;12.70;84.20;;;;;;4884027;29;20541;-87
2023/10/27 08:37:17;;;;;;;28.80;14.25;;;12.80;84.20;;;;;;4868476;29;20079;-87
2023/10/27 08:39:45;;;;;;;24.27;13.82;;;12.80;84.20;;;;;;4884074;29;20562;-86
2023/10/27 08:42:13;;;;;;;24.80;13.77;;;12.90;84.00;;;;;;4868480;29;20100;-86
2023/10/27 08:44:43;;;;;;;23.63;13.73;;;13.00;83.80;;;;;;4883100;29;20045;-86
2023/10/27 08:47:12;;;;;;;25.55;13.07;;;13.10;83.60;;;;;;4868474;29;20048;-86
2023/10/27 08:49:39;;;;;;;23.02;13.70;;;13.10;83.40;;;;;;4868272;29;20052;-86
2023/10/27 08:52:08;;;;;;;23.95;13.13;;;13.00;83.40;;;;;;4883475;29;20116;-85
2023/10/27 08:54:40;;;;;;;26.98;15.18;;;13.10;83.40;;;;;;4882029;29;20051;-85
2023/10/27 08:57:08;;;;;;;23.43;14.03;;;13.10;83.40;;;;;;4883382;29;20053;-86
2023/10/27 08:59:35;;;;;;;24.05;13.98;;;13.10;83.60;;;;;;4874148;29;20055;-86
2023/10/27 09:02:04;;;;;;;25.58;13.70;;;13.10;83.60;;;;;;4865847;29;20077;-85
2023/10/27 09:04:33;;;;;;;29.73;14.48;;;13.10;83.50;;;;;;4868167;29;20096;-85
2023/10/27 09:07:01;;;;;;;26.83;14.60;;;13.10;83.80;;;;;;4867963;29;20053;-86
2023/10/27 09:09:28;;;;;;;24.60;13.43;;;13.10;83.50;;;;;;4872833;29;20044;-86
2023/10/27 09:11:56;;;;;;;26.35;14.93;;;13.10;83.60;;;;;;4867654;29;20049;-86
2023/10/27 09:14:30;;;;;;;24.98;14.57;;;13.20;83.60;;;;;;4871621;29;20052;-86
2023/10/27 09:17:06;;;;;;;25.63;14.23;;;13.20;83.70;;;;;;4863919;29;20073;-86
2023/10/27 09:19:33;;;;;;;24.77;14.15;;;13.20;83.60;;;;;;4861288;29;20049;-86
2023/10/27 09:22:05;;;;;;;27.93;15.00;;;13.20;83.60;;;;;;4846199;29;20076;-87
2023/10/27 09:24:34;;;;;;;27.95;15.40;;;13.10;83.90;;;;;;4861420;29;20049;-86
2023/10/27 09:27:02;;;;;;;26.00;15.80;;;13.10;84.00;;;;;;4861409;29;20492;-87
2023/10/27 09:29:40;;;;;;;29.67;17.15;;;13.00;84.10;;;;;;4846098;29;20049;-87
2023/10/27 09:32:26;;;;;;;32.75;17.77;;;13.00;84.40;;;;;;4861123;29;20063;-87
2023/10/27 09:35:17;;;;;;;32.93;17.90;;;13.00;84.40;;;;;;4850467;29;20516;-86
2023/10/27 09:37:49;;;;;;;30.35;18.73;;;12.90;84.50;;;;;;4861337;29;20060;-86
2023/10/27 09:40:16;;;;;;;35.63;18.77;;;12.90;84.60;;;;;;4845608;29;20480;-86
2023/10/27 09:42:43;;;;;;;33.65;20.48;;;12.80;84.80;;;;;;4861124;29;20057;-86
2023/10/27 09:45:12;;;;;;;31.70;20.20;;;12.80;85.10;;;;;;4853164;29;20049;-86
2023/10/27 09:47:50;;;;;;;32.53;20.00;;;12.80;84.90;;;;;;4857418;29;20129;-87
2023/10/27 09:50:23;;;;;;;39.20;21.13;;;12.80;85.10;;;;;;4834620;29;20120;-86
2023/10/27 09:52:50;;;;;;;36.80;20.98;;;12.80;85.20;;;;;;4861285;29;20053;-86
2023/10/27 09:55:19;;;;;;;35.58;21.60;;;12.80;85.20;;;;;;4876451;29;20056;-87
2023/10/27 09:57:46;;;;;;;41.60;22.67;;;12.70;85.40;;;;;;4850281;29;20121;-86
2023/10/27 10:00:22;;;;;;;35.90;21.80;;;12.80;85.60;;;;;;4845832;29;20049;-86
2023/10/27 10:02:50;;;;;;;39.05;23.45;;;12.70;85.70;;;;;;4839373;29;20053;-87
2023/10/27 10:05:18;;;;;;;38.33;22.23;;;12.80;85.70;;;;;;4859236;29;20041;-86
2023/10/27 10:07:52;;;;;;;38.22;22.77;;;12.70;85.50;;;;;;4860809;29;20114;-86
2023/10/27 10:10:29;;;;;;;39.97;22.40;;;12.80;85.50;;;;;;4860693;29;20050;-86
2023/10/27 10:13:06;;;;;;;39.87;23.13;;;12.70;85.50;;;;;;4849970;29;20573;-87
2023/10/27 10:15:36;;;;;;;37.63;23.42;;;12.70;85.50;;;;;;4874877;29;20209;-87
2023/10/27 10:18:05;;;;;;;40.17;22.95;;;12.80;85.30;;;;;;4863261;29;20053;-86
2023/10/27 10:20:43;;;;;;;37.22;22.55;;;12.70;85.30;;;;;;4877488;29;20113;-86
2023/10/27 10:23:11;;;;;;;36.15;22.25;;;12.70;85.60;;;;;;4878119;29;20045;-87
2023/10/27 10:25:57;;;;;;;37.50;22.93;;;12.60;85.70;;;;;;4874815;29;20548;-87
2023/10/27 10:28:29;;;;;;;37.88;21.92;;;12.60;85.90;;;;;;4862651;29;20069;-86
2023/10/27 10:31:17;;;;;;;37.60;21.58;;;12.70;85.90;;;;;;4876128;29;20053;-87
2023/10/27 10:33:48;;;;;;;36.20;21.17;;;12.70;85.70;;;;;;4858667;29;20109;-86
2023/10/27 10:36:22;;;;;;;32.10;18.73;;;12.60;85.50;;;;;;4878559;29;20452;-86
2023/10/27 10:39:00;;;;;;;32.63;19.43;;;12.60;85.90;;;;;;4861784;29;20511;-88
2023/10/27 10:41:52;;;;;;;32.67;19.77;;;12.70;85.50;;;;;;4863434;29;20045;-86
2023/10/27 10:44:19;;;;;;;31.95;18.60;;;12.70;85.40;;;;;;4881811;29;20045;-86
2023/10/27 10:46:46;;;;;;;35.45;20.50;;;12.70;85.70;;;;;;4848134;29;20052;-86
2023/10/27 10:49:24;;;;;;;29.10;19.20;;;12.60;85.60;;;;;;4863254;29;20072;-87
2023/10/27 10:51:59;;;;;;;31.53;18.23;;;12.70;85.60;;;;;;4889703;29;20534;-86
2023/10/27 10:54:31;;;;;;;31.63;19.25;;;12.70;85.40;;;;;;4873880;29;20503;-86
2023/10/27 10:57:09;;;;;;;35.58;20.30;;;12.60;85.40;;;;;;4878391;29;20045;-86
2023/10/27 10:59:36;;;;;;;33.38;19.80;;;12.60;85.70;;;;;;4874653;29;20045;-86
2023/10/27 11:02:04;;;;;;;31.98;18.67;;;12.60;85.80;;;;;;4876113;29;20109;-86
2023/10/27 11:04:33;;;;;;;33.07;19.77;;;12.50;85.90;;;;;;4870260;29;20049;-86
2023/10/27 11:07:04;;;;;;;33.33;21.08;;;12.50;86.20;;;;;;4877321;29;20053;-86
2023/10/27 11:09:31;;;;;;;34.92;20.52;;;12.60;86.00;;;;;;4867414;29;20045;-86
2023/10/27 11:12:00;;;;;;;34.47;20.35;;;12.50;86.10;;;;;;4853796;29;20044;-87
2023/10/27 11:14:27;;;;;;;34.97;21.15;;;12.50;86.10;;;;;;4881732;29;20045;-86
2023/10/27 11:16:55;;;;;;;33.13;19.90;;;12.60;85.90;;;;;;4883235;29;20064;-86
2023/10/27 11:19:23;;;;;;;33.03;20.13;;;12.60;85.80;;;;;;4849364;29;20522;-86
2023/10/27 11:21:53;;;;;;;30.45;19.90;;;12.60;85.80;;;;;;4879352;29;20045;-86
2023/10/27 11:24:22;;;;;;;28.05;17.70;;;12.50;86.00;;;;;;4879504;29;20474;-87
2023/10/27 11:26:49;;;;;;;32.03;19.50;;;12.60;86.00;;;;;;4844259;29;20049;-86
2023/10/27 11:29:16;;;;;;;27.93;17.47;;;12.60;86.10;;;;;;4878980;29;20053;-86
2023/10/27 11:31:45;;;;;;;29.05;18.33;;;12.70;86.00;;;;;;4881763;29;20060;-86
2023/10/27 11:34:26;;;;;;;27.90;16.27;;;12.70;85.90;;;;;;4851352;29;20073;-86
2023/10/27 11:37:01;;;;;;;28.30;17.42;;;12.70;85.80;;;;;;4857302;29;20057;-86
2023/10/27 11:39:32;;;;;;;22.27;15.13;;;12.80;85.80;;;;;;4864238;29;20045;-86
2023/10/27 11:42:01;;;;;;;24.70;15.23;;;12.80;85.60;;;;;;4881809;29;20049;-86
2023/10/27 11:44:30;;;;;;;22.33;13.95;;;12.70;85.40;;;;;;4876308;29;20519;-86
2023/10/27 11:47:00;;;;;;;26.55;16.35;;;12.70;85.50;;;;;;4865342;29;20049;-86
2023/10/27 11:49:32;;;;;;;22.70;14.70;;;12.60;85.70;;;;;;4850350;29;20061;-86
2023/10/27 11:51:59;;;;;;;20.98;13.77;;;12.60;85.90;;;;;;4846611;29;20424;-85
2023/10/27 11:54:27;;;;;;;26.57;15.53;;;12.60;85.90;;;;;;4862764;29;20060;-86
2023/10/27 11:56:54;;;;;;;23.02;13.93;;;12.60;85.70;;;;;;4864895;29;20056;-86
2023/10/27 11:59:25;;;;;;;23.83;14.50;;;12.50;86.10;;;;;;4850255;29;20049;-86
2023/10/27 12:01:52;;;;;;;25.80;15.55;;;12.60;86.10;;;;;;4881132;29;20053;-86
2023/10/27 12:04:20;;;;;;;27.63;16.30;;;12.60;85.80;;;;;;4861960;29;20105;-86
2023/10/27 12:06:52;;;;;;;25.43;15.33;;;12.60;85.70;;;;;;4879879;29;20052;-86
2023/10/27 12:09:20;;;;;;;24.48;14.43;;;12.60;85.90;;;;;;4877855;29;20404;-85
2023/10/27 12:11:47;;;;;;;23.02;13.85;;;12.70;86.00;;;;;;4866320;29;20041;-86
2023/10/27 12:14:14;;;;;;;21.80;13.18;;;12.70;85.60;;;;;;4852469;29;20495;-86
2023/10/27 12:16:42;;;;;;;25.98;14.82;;;12.70;85.60;;;;;;4885524;29;20049;-86
2023/10/27 12:19:13;;;;;;;23.13;13.77;;;12.70;85.80;;;;;;4860721;29;20057;-86
2023/10/27 12:21:41;;;;;;;25.83;14.25;;;12.70;85.60;;;;;;4861909;29;20136;-86
2023/10/27 12:24:09;;;;;;;23.40;13.40;;;12.70;85.60;;;;;;4861740;29;20415;-86
2023/10/27 12:26:36;;;;;;;21.60;13.15;;;12.70;85.60;;;;;;4862734;29;20045;-86
2023/10/27 12:29:04;;;;;;;22.23;12.82;;;12.70;85.70;;;;;;4862029;29;20057;-87
2023/10/27 12:31:32;;;;;;;22.37;13.30;;;12.70;85.80;;;;;;4860001;29;20048;-86
2023/10/27 12:34:00;;;;;;;26.73;14.05;;;12.70;85.70;;;;;;4831884;29;20053;-86
2023/10/27 12:36:27;;;;;;;18.85;11.25;;;12.60;86.00;;;;;;4862178;29;20148;-86
2023/10/27 12:38:54;;;;;;;18.35;11.25;;;12.60;85.80;;;;;;4861447;29;20416;-86
2023/10/27 12:41:21;;;;;;;19.55;11.20;;;12.70;85.70;;;;;;4848238;29;20041;-86